Terminal Aerodrome Forecast
Issued by NWS Cleveland, OH

Home | Current Version | Previous Version | Graphics & Text | Print | Product List | Glossary On
Versions: 1 2 3 4 5 6 7 8 9 10 11 12 13 14 15 16 17
000
FTUS41 KCLE 181406 AAA
TAFCAK
TAF AMD
KCAK 181406Z 1814/1912 21009KT 2SM -DZ OVC004
      TEMPO 1817/1821 3SM -DZ BR OVC007
     FM182200 23010KT 5SM BR OVC010
     FM190300 23009KT P6SM OVC007=

USA.gov is the U.S. government's official web portal to all federal, state and local government web resources and services.